Die Nordseeküste

2020/03/28 11:50 EDDH 281150Z 31009KT 270V330 CAVOK 12/M03 Q1022 NOSIG
2008/11/04 23:50 TAF AMD EDDH 042350Z 050007 CNL= TAF AMD EDDV 042350Z 050007 CNL
2020/03/28 12:27 TAF EDDH 281100Z 2812/2918 31009KT 9999 FEW035 BECMG 2901/2904 01015G25KT BKN013 TEMPO 2902/2908 2500 SNRA BKN006 TEMPO 2906/2912 02020G35KT BECMG 2916/2918 01012KT

2020/03/22 15:20 EDXW 221520Z 11015KT CAVOK 06/M05 Q1037
2020/03/22 16:54 TAF TAF EDXW 221645Z 2216/2218 CNL
2009/07/07 14:00 TAF EDXW 071400Z 0715/0719 22015G25KT 9999 SCT020

2020/03/25 06:50 EKSB 250650Z AUTO 18008KT 150V220 9999NDV NCD 04/M08 Q1032
2020/03/17 06:45 TAF TAF EKSB 170740Z 1706/1715 CNL
2016/01/27 09:03 TAF TAF EKSB 270856Z 2709/2721 23022KT 5000 -RA BR BKN008 TEMPO 2709/2721 24025G40KT 2000 RADZ BKN004